Heesch, Netherlands
Current Conditions -  °F | °C
As of 5:25 PM on Friday 24 Oct 2014 (Local Time) from EHVK Reporting Station
Overcast Overcast  
Wind Chill: 55°   Ceiling: 2000
Heat Index: 55°   Visibility: 6mi
Dew Point: 50°   Wind: 9mph
Humidity: 82%   Direction: 180°S
Pressure: 30.03"   Gusts: NA
Location:  51.73°N, 5.53°E
Report Text: EHVK 241525Z AUTO 18008KT 9999 OVC020 13/10 Q1017 WHT
Loading
Personal Weather Stations






























Interactive Weather Map
Tropical Storm Tracking
New forecast layout! Learn more

10-Day Weather Forecast

Advertisements
Track Severe Weather on mobile